x

South Hecate Strait (46185) Wave Buoy

1:00am - Mon 8th Feb 2016 All times are PST. -8 hours from GMT.

  • Sig Wave height 14.4ft
  • Peak Period 11s
  • Wind
    31mph, 40mph gusts
  • Sea Temp 48°f
  • Air Temp 47°f
  • Sea Pressure 1024.1mb
  • South Hecate Strait
  • South Hecate Strait

More Historic Weather Station data

Upgrade to MSW Pro to gain access to the past 30 days of data for over 8000 Wavebouys and Weather Stations around the globe.

Join Pro

Comparision Forecast

View Surf forecast
   
Mon 02/08 1:00am 14.5ft 11s 31 40 mph 1024.1mb 48f 47f
12:00am  -   -  34
mph
- - 47f
Sun 02/07 11:00pm 15.5ft 9s 36 43 mph 1023.5mb 48f 47f
10:00pm 16.5ft 10s 34 45 mph 1023.8mb 48f 47f
9:00pm 17ft 10s 34 45 mph 1023.4mb 48f 47f
8:00pm  -   -  34
mph
- - 48f
7:00pm 20ft 11s 34 43 mph 1023.5mb 48f 47f
6:00pm  -   -  36
mph
- - 47f
5:00pm 21ft 11s 40 54 mph 1022.7mb 48f 48f
4:00pm 21.5ft 11s 36 47 mph 1022.1mb 48f 48f
3:00pm 19.5ft 10s 40 54 mph 1022mb 48f 48f
2:00pm 23ft 12s 36 47 mph 1021.8mb 48f 47f
1:00pm 21.5ft 10s 36 47 mph 1022.3mb 48f 47f
12:00pm 21ft 10s 38 47 mph 1022.1mb 48f 47f
11:00am 23ft 11s 40 51 mph 1021.6mb 48f 47f
10:00am 20.5ft 10s 40 51 mph 1021.1mb 48f 46f
8:00am 18.5ft 10s 38 47 mph 1020.8mb 48f 46f
7:00am 17.5ft 10s 36 45 mph 1021.2mb 48f 45f
6:00am 16.5ft 10s 38 49 mph 1021.5mb 48f 45f
5:00am 15.5ft 9s 38 47 mph 1021.3mb 48f 46f
4:00am 15.5ft 9s 38 47 mph 1021.3mb 48f 46f
3:00am 14.5ft 9s 38 47 mph 1021.9mb 48f 45f
2:00am 13ft 8s 38 49 mph 1022.1mb 48f 45f
1:00am 12ft 7s 36 45 mph 1023mb 48f 46f
12:00am 11.5ft 7s 38 47 mph 1022.8mb 48f 47f
Sat 02/06 11:00pm 11ft 7s 34 43 mph 1023.8mb 48f 46f
10:00pm 10.5ft 11s 31 36 mph 1024.8mb 48f 47f
9:00pm 9ft 10s 29 36 mph 1025mb 48f 47f
8:00pm 8.5ft 9s 27 34 mph 1025.4mb 48f 47f
7:00pm 8.5ft 10s 27 34 mph 1025.8mb 48f 47f
6:00pm 8ft 10s 22 31 mph 1026mb 48f 47f
5:00pm 8ft 10s 22 25 mph 1025.6mb 48f 47f
4:00pm 7ft 11s 18 20 mph 1026.1mb 48f 47f
3:00pm 8ft 10s 13 18 mph 1026.4mb 48f 47f
2:00pm 8.5ft 11s 16 22 mph 1026.3mb 48f 46f
1:00pm 8ft 11s 16 20 mph 1026.4mb 48f 46f
12:00pm 8.5ft 11s 9 13 mph 1025.9mb 48f 46f
11:00am 9ft 10s 11 16 mph 1025.5mb 48f 45f
10:00am 10ft 11s 11 13 mph 1024.8mb 48f 45f
9:00am 10ft 10s 11 13 mph 1023.9mb 48f 45f
8:00am 11ft 10s 13 16 mph 1022.8mb 48f 45f
7:00am 10ft 12s 18 20 mph 1022.2mb 48f 45f
6:00am 11ft 12s 18 25 mph 1021.6mb 48f 46f
5:00am 11ft 12s 20 27 mph 1020.6mb 48f 46f
4:00am 11ft 11s 22 29 mph 1019.2mb 48f 46f
3:00am  -   -  27
mph
1017.6mb - 46f
2:00am 12ft 12s 25 31 mph 1016.3mb 48f 46f
1:00am 12ft 11s 29 36 mph 1014.4mb 48f 45f
12:00am 12.5ft 12s 31 40 mph 1012.7mb 48f 44f
Fri 02/05 11:00pm 11.5ft 12s 29 38 mph 1011.5mb 48f 45f
10:00pm 11ft 11s 20 22 mph 1010.8mb 48f 45f
9:00pm 13ft 12s 22 27 mph 1009.6mb 48f 46f
8:00pm 12.5ft 12s 22 27 mph 1008.7mb 48f 46f
7:00pm 13.5ft 12s 22 27 mph 1007.5mb 48f 46f
6:00pm 15ft 11s 20 27 mph 1006.2mb 48f 46f
5:00pm 12ft 12s 27 36 mph 1005mb 48f 46f
4:00pm 14ft 12s 22 27 mph 1003.6mb 48f 47f
3:00pm 13.5ft 10s 25 34 mph 1002mb 48f 46f
2:00pm 16ft 13s 20 25 mph 1001.7mb 48f 47f
1:00pm 16.5ft 12s 18 22 mph 1001.3mb 48f 47f
12:00pm 17ft 11s 16 22 mph 1000.6mb 48f 47f
11:00am 18ft 13s 13 20 mph 1000.6mb 48f 48f
10:00am 18.5ft 11s 11 16 mph 1000.7mb 48f 47f
9:00am 19.5ft 10s 11 18 mph 1000.5mb 48f 47f
8:00am 23.5ft 10s 29 40 mph 999.9mb 48f 47f
7:00am 24.5ft 11s 34 45 mph 999.6mb 48f 47f
6:00am 26ft 12s 36 49 mph 999.8mb 48f 47f
4:00am 29ft 12s 40 60 mph 999.9mb 48f 47f
3:00am 26ft 12s 43 60 mph 1000.2mb 48f 47f
1:00am 28ft 11s 47 63 mph 999.5mb 48f 47f
12:00am 27ft 12s 47 63 mph 999.5mb 48f 47f
Thu 02/04 11:00pm 26ft 11s 47 60 mph 1000mb 48f 47f
10:00pm 24.5ft 10s 47 60 mph 1000.6mb 48f 47f
9:00pm 24ft 10s 47 60 mph 1000.9mb 48f 47f
8:00pm  -   -  47
mph
1001.5mb - 47f
7:00pm 22.5ft 10s 45 63 mph 1003.2mb 48f 47f
6:00pm 19.5ft 11s 45 58 mph 1004.3mb 48f 47f
5:00pm 19.5ft 10s 43 54 mph 1006mb 48f 47f
3:00pm 17.5ft 9s 38 51 mph 1008.3mb 48f 48f
2:00pm 18.5ft 9s 38 49 mph 1009.4mb 48f 47f
1:00pm 17ft 9s 40 54 mph 1009.2mb 48f 47f
12:00pm 15.5ft 8s 38 51 mph 1010.2mb 48f 47f
11:00am 14.5ft 8s 40 47 mph 1010.4mb 48f 46f